sensor_id;sensor_type;location;lat;lon;timestamp;P1;durP1;ratioP1;P2;durP2;ratioP2
77117;SDS011;66072;50.238;19.228;2023-06-22T00:01:01;10.70;;;6.80;;
77117;SDS011;66072;50.238;19.228;2023-06-22T00:03:31;9.50;;;5.70;;
77117;SDS011;66072;50.238;19.228;2023-06-22T00:05:59;9.80;;;6.50;;
77117;SDS011;66072;50.238;19.228;2023-06-22T00:08:26;11.90;;;6.70;;
77117;SDS011;66072;50.238;19.228;2023-06-22T00:10:54;10.70;;;6.20;;
77117;SDS011;66072;50.238;19.228;2023-06-22T00:13:21;10.20;;;6.90;;
77117;SDS011;66072;50.238;19.228;2023-06-22T00:15:49;9.60;;;5.70;;
77117;SDS011;66072;50.238;19.228;2023-06-22T00:18:17;8.80;;;6.10;;
77117;SDS011;66072;50.238;19.228;2023-06-22T00:20:44;8.90;;;6.50;;
77117;SDS011;66072;50.238;19.228;2023-06-22T00:23:12;10.70;;;6.30;;
77117;SDS011;66072;50.238;19.228;2023-06-22T00:25:40;10.40;;;5.70;;
77117;SDS011;66072;50.238;19.228;2023-06-22T00:28:08;11.00;;;6.00;;
77117;SDS011;66072;50.238;19.228;2023-06-22T00:30:35;10.60;;;5.70;;
77117;SDS011;66072;50.238;19.228;2023-06-22T00:33:03;8.90;;;5.40;;
77117;SDS011;66072;50.238;19.228;2023-06-22T00:35:31;9.80;;;5.30;;
77117;SDS011;66072;50.238;19.228;2023-06-22T00:37:59;8.50;;;5.40;;
77117;SDS011;66072;50.238;19.228;2023-06-22T00:42:57;10.20;;;6.00;;
77117;SDS011;66072;50.238;19.228;2023-06-22T00:45:25;8.60;;;5.30;;
77117;SDS011;66072;50.238;19.228;2023-06-22T00:47:54;9.70;;;5.70;;
77117;SDS011;66072;50.238;19.228;2023-06-22T00:50:26;9.30;;;5.10;;
77117;SDS011;66072;50.238;19.228;2023-06-22T00:52:57;8.40;;;4.30;;
77117;SDS011;66072;50.238;19.228;2023-06-22T00:57:54;8.40;;;4.90;;
77117;SDS011;66072;50.238;19.228;2023-06-22T01:00:22;10.10;;;4.80;;
77117;SDS011;66072;50.238;19.228;2023-06-22T01:02:51;7.90;;;4.70;;
77117;SDS011;66072;50.238;19.228;2023-06-22T01:05:21;11.60;;;5.50;;
77117;SDS011;66072;50.238;19.228;2023-06-22T01:13:36;7.60;;;4.80;;
77117;SDS011;66072;50.238;19.228;2023-06-22T01:16:10;9.40;;;3.80;;
77117;SDS011;66072;50.238;19.228;2023-06-22T01:18:44;10.00;;;4.90;;
77117;SDS011;66072;50.238;19.228;2023-06-22T01:21:16;10.40;;;5.30;;
77117;SDS011;66072;50.238;19.228;2023-06-22T01:29:11;10.00;;;5.00;;
77117;SDS011;66072;50.238;19.228;2023-06-22T01:31:40;11.50;;;5.20;;
77117;SDS011;66072;50.238;19.228;2023-06-22T01:36:38;10.40;;;4.70;;
77117;SDS011;66072;50.238;19.228;2023-06-22T01:39:06;11.70;;;5.70;;
77117;SDS011;66072;50.238;19.228;2023-06-22T01:41:36;10.30;;;5.40;;
77117;SDS011;66072;50.238;19.228;2023-06-22T01:44:06;8.40;;;5.00;;
77117;SDS011;66072;50.238;19.228;2023-06-22T01:46:34;10.30;;;5.00;;
77117;SDS011;66072;50.238;19.228;2023-06-22T01:49:03;11.20;;;5.30;;
77117;SDS011;66072;50.238;19.228;2023-06-22T01:51:32;10.40;;;5.60;;
77117;SDS011;66072;50.238;19.228;2023-06-22T01:54:01;8.40;;;4.90;;
77117;SDS011;66072;50.238;19.228;2023-06-22T01:56:29;9.50;;;5.10;;
77117;SDS011;66072;50.238;19.228;2023-06-22T01:59:03;11.50;;;5.90;;
77117;SDS011;66072;50.238;19.228;2023-06-22T02:01:43;9.20;;;4.90;;
77117;SDS011;66072;50.238;19.228;2023-06-22T02:04:21;9.20;;;5.00;;
77117;SDS011;66072;50.238;19.228;2023-06-22T02:06:56;9.50;;;5.50;;
77117;SDS011;66072;50.238;19.228;2023-06-22T02:09:28;10.10;;;4.90;;
77117;SDS011;66072;50.238;19.228;2023-06-22T02:11:58;8.70;;;5.20;;
77117;SDS011;66072;50.238;19.228;2023-06-22T02:14:28;11.10;;;5.70;;
77117;SDS011;66072;50.238;19.228;2023-06-22T02:16:56;10.50;;;5.30;;
77117;SDS011;66072;50.238;19.228;2023-06-22T02:19:24;10.30;;;5.50;;
77117;SDS011;66072;50.238;19.228;2023-06-22T02:21:52;9.20;;;5.20;;
77117;SDS011;66072;50.238;19.228;2023-06-22T02:24:20;10.90;;;6.40;;
77117;SDS011;66072;50.238;19.228;2023-06-22T02:26:47;8.80;;;5.20;;
77117;SDS011;66072;50.238;19.228;2023-06-22T02:29:15;13.20;;;6.40;;
77117;SDS011;66072;50.238;19.228;2023-06-22T02:31:43;10.10;;;5.90;;
77117;SDS011;66072;50.238;19.228;2023-06-22T02:34:10;9.70;;;6.00;;
77117;SDS011;66072;50.238;19.228;2023-06-22T02:36:38;10.50;;;6.40;;
77117;SDS011;66072;50.238;19.228;2023-06-22T02:39:05;12.30;;;5.80;;
77117;SDS011;66072;50.238;19.228;2023-06-22T02:41:33;12.50;;;7.00;;
77117;SDS011;66072;50.238;19.228;2023-06-22T02:44:01;9.40;;;5.70;;
77117;SDS011;66072;50.238;19.228;2023-06-22T02:46:28;10.20;;;6.20;;
77117;SDS011;66072;50.238;19.228;2023-06-22T02:48:56;11.50;;;6.40;;
77117;SDS011;66072;50.238;19.228;2023-06-22T02:51:23;10.60;;;6.40;;
77117;SDS011;66072;50.238;19.228;2023-06-22T02:53:51;10.80;;;6.10;;
77117;SDS011;66072;50.238;19.228;2023-06-22T02:56:19;11.10;;;5.50;;
77117;SDS011;66072;50.238;19.228;2023-06-22T02:58:46;12.30;;;6.00;;
77117;SDS011;66072;50.238;19.228;2023-06-22T03:01:14;11.50;;;5.40;;
77117;SDS011;66072;50.238;19.228;2023-06-22T03:03:42;11.20;;;5.30;;
77117;SDS011;66072;50.238;19.228;2023-06-22T03:06:10;11.10;;;5.80;;
77117;SDS011;66072;50.238;19.228;2023-06-22T03:08:37;13.70;;;6.20;;
77117;SDS011;66072;50.238;19.228;2023-06-22T03:11:05;10.80;;;5.50;;
77117;SDS011;66072;50.238;19.228;2023-06-22T03:13:32;9.50;;;5.30;;
77117;SDS011;66072;50.238;19.228;2023-06-22T03:16:00;10.70;;;5.80;;
77117;SDS011;66072;50.238;19.228;2023-06-22T03:18:28;9.40;;;5.30;;
77117;SDS011;66072;50.238;19.228;2023-06-22T03:20:55;8.90;;;5.70;;
77117;SDS011;66072;50.238;19.228;2023-06-22T03:23:23;10.80;;;5.60;;
77117;SDS011;66072;50.238;19.228;2023-06-22T03:25:51;9.00;;;4.90;;
77117;SDS011;66072;50.238;19.228;2023-06-22T03:28:18;11.00;;;6.00;;
77117;SDS011;66072;50.238;19.228;2023-06-22T03:30:46;12.40;;;5.80;;
77117;SDS011;66072;50.238;19.228;2023-06-22T03:33:14;12.30;;;5.50;;
77117;SDS011;66072;50.238;19.228;2023-06-22T03:35:42;11.60;;;6.10;;
77117;SDS011;66072;50.238;19.228;2023-06-22T03:38:10;14.30;;;6.90;;
77117;SDS011;66072;50.238;19.228;2023-06-22T03:40:37;10.50;;;6.20;;
77117;SDS011;66072;50.238;19.228;2023-06-22T03:43:07;8.00;;;4.90;;
77117;SDS011;66072;50.238;19.228;2023-06-22T03:45:35;11.50;;;5.30;;
77117;SDS011;66072;50.238;19.228;2023-06-22T03:48:03;10.20;;;5.80;;
77117;SDS011;66072;50.238;19.228;2023-06-22T03:50:30;11.50;;;6.30;;
77117;SDS011;66072;50.238;19.228;2023-06-22T03:52:58;8.60;;;5.60;;
77117;SDS011;66072;50.238;19.228;2023-06-22T03:55:26;11.20;;;6.70;;
77117;SDS011;66072;50.238;19.228;2023-06-22T03:57:54;10.40;;;6.00;;
77117;SDS011;66072;50.238;19.228;2023-06-22T04:00:22;11.30;;;5.80;;
77117;SDS011;66072;50.238;19.228;2023-06-22T04:02:50;8.90;;;5.50;;
77117;SDS011;66072;50.238;19.228;2023-06-22T04:05:18;9.20;;;5.50;;
77117;SDS011;66072;50.238;19.228;2023-06-22T04:07:46;14.10;;;6.40;;
77117;SDS011;66072;50.238;19.228;2023-06-22T04:10:14;9.60;;;5.40;;
77117;SDS011;66072;50.238;19.228;2023-06-22T04:12:44;10.60;;;6.10;;
77117;SDS011;66072;50.238;19.228;2023-06-22T04:15:12;9.20;;;5.60;;
77117;SDS011;66072;50.238;19.228;2023-06-22T04:17:40;14.00;;;5.90;;
77117;SDS011;66072;50.238;19.228;2023-06-22T04:20:07;9.90;;;5.40;;
77117;SDS011;66072;50.238;19.228;2023-06-22T04:22:35;12.80;;;6.70;;
77117;SDS011;66072;50.238;19.228;2023-06-22T04:25:06;9.00;;;5.90;;
77117;SDS011;66072;50.238;19.228;2023-06-22T04:27:34;9.30;;;5.40;;
77117;SDS011;66072;50.238;19.228;2023-06-22T04:30:02;11.30;;;6.20;;
77117;SDS011;66072;50.238;19.228;2023-06-22T04:32:53;11.60;;;6.10;;
77117;SDS011;66072;50.238;19.228;2023-06-22T04:35:20;10.00;;;6.30;;
77117;SDS011;66072;50.238;19.228;2023-06-22T04:37:48;12.30;;;6.70;;
77117;SDS011;66072;50.238;19.228;2023-06-22T04:40:16;12.10;;;6.80;;
77117;SDS011;66072;50.238;19.228;2023-06-22T04:42:43;9.40;;;6.20;;
77117;SDS011;66072;50.238;19.228;2023-06-22T04:45:11;13.70;;;6.80;;
77117;SDS011;66072;50.238;19.228;2023-06-22T04:47:38;11.70;;;7.10;;
77117;SDS011;66072;50.238;19.228;2023-06-22T04:50:06;11.60;;;7.10;;
77117;SDS011;66072;50.238;19.228;2023-06-22T04:52:34;12.80;;;6.50;;
77117;SDS011;66072;50.238;19.228;2023-06-22T04:55:05;10.40;;;6.50;;
77117;SDS011;66072;50.238;19.228;2023-06-22T04:57:33;10.50;;;6.10;;
77117;SDS011;66072;50.238;19.228;2023-06-22T05:00:02;12.20;;;7.40;;
77117;SDS011;66072;50.238;19.228;2023-06-22T05:02:30;10.60;;;6.70;;
77117;SDS011;66072;50.238;19.228;2023-06-22T05:04:58;9.90;;;6.70;;
77117;SDS011;66072;50.238;19.228;2023-06-22T05:07:26;12.60;;;6.90;;
77117;SDS011;66072;50.238;19.228;2023-06-22T05:09:53;12.00;;;8.60;;
77117;SDS011;66072;50.238;19.228;2023-06-22T05:12:21;16.90;;;10.10;;
77117;SDS011;66072;50.238;19.228;2023-06-22T05:14:49;13.50;;;9.50;;
77117;SDS011;66072;50.238;19.228;2023-06-22T05:17:16;14.00;;;9.00;;
77117;SDS011;66072;50.238;19.228;2023-06-22T05:19:44;12.80;;;9.70;;
77117;SDS011;66072;50.238;19.228;2023-06-22T05:22:12;17.40;;;11.00;;
77117;SDS011;66072;50.238;19.228;2023-06-22T05:24:41;17.10;;;10.90;;
77117;SDS011;66072;50.238;19.228;2023-06-22T05:27:09;14.30;;;10.70;;
77117;SDS011;66072;50.238;19.228;2023-06-22T05:29:37;20.70;;;12.70;;
77117;SDS011;66072;50.238;19.228;2023-06-22T05:32:06;15.50;;;10.70;;
77117;SDS011;66072;50.238;19.228;2023-06-22T05:34:34;21.90;;;14.10;;
77117;SDS011;66072;50.238;19.228;2023-06-22T05:37:02;20.80;;;12.80;;
77117;SDS011;66072;50.238;19.228;2023-06-22T05:39:30;18.40;;;12.90;;
77117;SDS011;66072;50.238;19.228;2023-06-22T05:41:58;21.10;;;13.90;;
77117;SDS011;66072;50.238;19.228;2023-06-22T05:44:26;18.70;;;12.80;;
77117;SDS011;66072;50.238;19.228;2023-06-22T05:46:53;18.10;;;14.10;;
77117;SDS011;66072;50.238;19.228;2023-06-22T05:49:21;13.20;;;8.80;;
77117;SDS011;66072;50.238;19.228;2023-06-22T05:51:49;20.10;;;13.00;;
77117;SDS011;66072;50.238;19.228;2023-06-22T05:54:17;17.00;;;12.40;;
77117;SDS011;66072;50.238;19.228;2023-06-22T05:56:45;19.70;;;14.70;;
77117;SDS011;66072;50.238;19.228;2023-06-22T05:59:15;18.20;;;13.80;;
77117;SDS011;66072;50.238;19.228;2023-06-22T06:01:43;17.90;;;12.90;;
77117;SDS011;66072;50.238;19.228;2023-06-22T06:04:11;17.80;;;14.10;;
77117;SDS011;66072;50.238;19.228;2023-06-22T06:06:38;20.70;;;14.40;;
77117;SDS011;66072;50.238;19.228;2023-06-22T06:09:06;18.20;;;13.00;;
77117;SDS011;66072;50.238;19.228;2023-06-22T06:11:33;21.70;;;13.30;;
77117;SDS011;66072;50.238;19.228;2023-06-22T06:14:01;20.30;;;14.20;;
77117;SDS011;66072;50.238;19.228;2023-06-22T06:16:29;20.90;;;14.20;;
77117;SDS011;66072;50.238;19.228;2023-06-22T06:18:57;19.90;;;15.20;;
77117;SDS011;66072;50.238;19.228;2023-06-22T06:21:24;19.00;;;14.90;;
77117;SDS011;66072;50.238;19.228;2023-06-22T06:23:52;19.40;;;14.60;;
77117;SDS011;66072;50.238;19.228;2023-06-22T06:26:19;19.80;;;14.90;;
77117;SDS011;66072;50.238;19.228;2023-06-22T06:28:47;21.20;;;15.00;;
77117;SDS011;66072;50.238;19.228;2023-06-22T06:31:15;18.80;;;14.50;;
77117;SDS011;66072;50.238;19.228;2023-06-22T06:33:43;21.40;;;15.20;;
77117;SDS011;66072;50.238;19.228;2023-06-22T06:36:10;20.00;;;16.30;;
77117;SDS011;66072;50.238;19.228;2023-06-22T06:38:38;20.80;;;16.10;;
77117;SDS011;66072;50.238;19.228;2023-06-22T06:41:06;20.70;;;16.80;;
77117;SDS011;66072;50.238;19.228;2023-06-22T06:43:34;21.00;;;15.70;;
77117;SDS011;66072;50.238;19.228;2023-06-22T06:46:01;18.30;;;14.70;;
77117;SDS011;66072;50.238;19.228;2023-06-22T06:48:30;17.70;;;14.00;;
77117;SDS011;66072;50.238;19.228;2023-06-22T06:50:58;19.00;;;16.30;;
77117;SDS011;66072;50.238;19.228;2023-06-22T06:53:26;19.20;;;15.30;;
77117;SDS011;66072;50.238;19.228;2023-06-22T06:55:54;22.50;;;16.70;;
77117;SDS011;66072;50.238;19.228;2023-06-22T06:58:22;21.60;;;16.70;;
77117;SDS011;66072;50.238;19.228;2023-06-22T07:00:50;21.10;;;17.80;;
77117;SDS011;66072;50.238;19.228;2023-06-22T07:03:18;20.30;;;18.00;;
77117;SDS011;66072;50.238;19.228;2023-06-22T07:05:46;19.50;;;16.20;;
77117;SDS011;66072;50.238;19.228;2023-06-22T07:08:14;21.40;;;17.50;;
77117;SDS011;66072;50.238;19.228;2023-06-22T07:10:42;19.90;;;16.30;;
77117;SDS011;66072;50.238;19.228;2023-06-22T07:13:10;19.90;;;16.70;;
77117;SDS011;66072;50.238;19.228;2023-06-22T07:15:38;19.30;;;16.70;;
77117;SDS011;66072;50.238;19.228;2023-06-22T07:18:06;22.20;;;16.10;;
77117;SDS011;66072;50.238;19.228;2023-06-22T07:20:33;17.70;;;14.10;;
77117;SDS011;66072;50.238;19.228;2023-06-22T07:23:01;15.60;;;13.90;;
77117;SDS011;66072;50.238;19.228;2023-06-22T07:25:29;17.50;;;12.90;;
77117;SDS011;66072;50.238;19.228;2023-06-22T07:27:57;14.50;;;13.00;;
77117;SDS011;66072;50.238;19.228;2023-06-22T07:30:30;16.10;;;12.60;;
77117;SDS011;66072;50.238;19.228;2023-06-22T07:33:00;14.70;;;12.50;;
77117;SDS011;66072;50.238;19.228;2023-06-22T07:35:29;14.80;;;13.00;;
77117;SDS011;66072;50.238;19.228;2023-06-22T07:37:58;14.90;;;11.90;;
77117;SDS011;66072;50.238;19.228;2023-06-22T07:40:30;14.60;;;11.70;;
77117;SDS011;66072;50.238;19.228;2023-06-22T07:42:59;14.40;;;11.80;;
77117;SDS011;66072;50.238;19.228;2023-06-22T07:45:27;13.60;;;11.00;;
77117;SDS011;66072;50.238;19.228;2023-06-22T07:47:55;12.40;;;10.90;;
77117;SDS011;66072;50.238;19.228;2023-06-22T07:50:23;12.60;;;10.90;;
77117;SDS011;66072;50.238;19.228;2023-06-22T07:52:50;12.00;;;10.70;;
77117;SDS011;66072;50.238;19.228;2023-06-22T07:55:18;13.00;;;11.30;;
77117;SDS011;66072;50.238;19.228;2023-06-22T07:57:47;13.00;;;10.20;;
77117;SDS011;66072;50.238;19.228;2023-06-22T08:00:17;12.60;;;11.00;;
77117;SDS011;66072;50.238;19.228;2023-06-22T08:02:45;13.90;;;11.20;;
77117;SDS011;66072;50.238;19.228;2023-06-22T08:05:14;13.00;;;11.60;;
77117;SDS011;66072;50.238;19.228;2023-06-22T08:07:45;13.60;;;10.10;;
77117;SDS011;66072;50.238;19.228;2023-06-22T08:10:16;13.10;;;10.70;;
77117;SDS011;66072;50.238;19.228;2023-06-22T08:12:44;10.80;;;9.60;;
77117;SDS011;66072;50.238;19.228;2023-06-22T08:15:12;11.80;;;9.40;;
77117;SDS011;66072;50.238;19.228;2023-06-22T08:17:40;10.80;;;9.40;;
77117;SDS011;66072;50.238;19.228;2023-06-22T08:20:09;13.40;;;9.90;;
77117;SDS011;66072;50.238;19.228;2023-06-22T08:22:38;10.90;;;9.30;;
77117;SDS011;66072;50.238;19.228;2023-06-22T08:25:07;10.90;;;9.70;;
77117;SDS011;66072;50.238;19.228;2023-06-22T08:27:35;13.00;;;10.60;;
77117;SDS011;66072;50.238;19.228;2023-06-22T08:30:04;13.70;;;9.70;;
77117;SDS011;66072;50.238;19.228;2023-06-22T08:32:33;10.50;;;8.30;;
77117;SDS011;66072;50.238;19.228;2023-06-22T08:35:02;11.70;;;8.70;;
77117;SDS011;66072;50.238;19.228;2023-06-22T08:37:30;9.40;;;8.30;;
77117;SDS011;66072;50.238;19.228;2023-06-22T08:40:02;9.90;;;8.40;;
77117;SDS011;66072;50.238;19.228;2023-06-22T08:42:32;9.80;;;8.70;;
77117;SDS011;66072;50.238;19.228;2023-06-22T08:45:00;8.60;;;6.70;;
77117;SDS011;66072;50.238;19.228;2023-06-22T08:47:28;9.20;;;6.70;;
77117;SDS011;66072;50.238;19.228;2023-06-22T08:49:56;9.00;;;6.50;;
77117;SDS011;66072;50.238;19.228;2023-06-22T08:52:24;7.40;;;6.50;;
77117;SDS011;66072;50.238;19.228;2023-06-22T08:54:52;7.90;;;6.80;;
77117;SDS011;66072;50.238;19.228;2023-06-22T08:57:21;9.20;;;7.00;;
77117;SDS011;66072;50.238;19.228;2023-06-22T08:59:49;7.60;;;6.40;;
77117;SDS011;66072;50.238;19.228;2023-06-22T09:02:17;7.80;;;6.00;;
77117;SDS011;66072;50.238;19.228;2023-06-22T09:04:48;8.20;;;6.60;;
77117;SDS011;66072;50.238;19.228;2023-06-22T09:07:16;7.80;;;6.40;;
77117;SDS011;66072;50.238;19.228;2023-06-22T09:09:44;8.50;;;6.20;;
77117;SDS011;66072;50.238;19.228;2023-06-22T09:12:12;6.50;;;5.00;;
77117;SDS011;66072;50.238;19.228;2023-06-22T09:14:40;6.90;;;5.30;;
77117;SDS011;66072;50.238;19.228;2023-06-22T09:17:07;8.20;;;6.50;;
77117;SDS011;66072;50.238;19.228;2023-06-22T09:19:36;8.90;;;6.50;;
77117;SDS011;66072;50.238;19.228;2023-06-22T09:22:03;10.30;;;6.70;;
77117;SDS011;66072;50.238;19.228;2023-06-22T09:24:32;7.90;;;6.70;;
77117;SDS011;66072;50.238;19.228;2023-06-22T09:27:01;7.10;;;6.00;;
77117;SDS011;66072;50.238;19.228;2023-06-22T09:29:29;8.90;;;7.20;;
77117;SDS011;66072;50.238;19.228;2023-06-22T09:31:57;7.80;;;5.80;;
77117;SDS011;66072;50.238;19.228;2023-06-22T09:34:25;8.30;;;7.10;;
77117;SDS011;66072;50.238;19.228;2023-06-22T09:36:56;7.10;;;5.70;;
77117;SDS011;66072;50.238;19.228;2023-06-22T09:39:24;6.60;;;5.40;;
77117;SDS011;66072;50.238;19.228;2023-06-22T09:41:52;7.90;;;5.50;;
77117;SDS011;66072;50.238;19.228;2023-06-22T09:44:20;5.20;;;4.30;;
77117;SDS011;66072;50.238;19.228;2023-06-22T09:46:48;8.30;;;5.40;;
77117;SDS011;66072;50.238;19.228;2023-06-22T09:49:16;6.40;;;4.90;;
77117;SDS011;66072;50.238;19.228;2023-06-22T09:51:44;6.40;;;4.40;;
77117;SDS011;66072;50.238;19.228;2023-06-22T09:54:12;6.90;;;5.60;;
77117;SDS011;66072;50.238;19.228;2023-06-22T09:56:39;6.60;;;5.20;;
77117;SDS011;66072;50.238;19.228;2023-06-22T09:59:07;5.90;;;5.10;;
77117;SDS011;66072;50.238;19.228;2023-06-22T10:01:45;7.90;;;5.30;;
77117;SDS011;66072;50.238;19.228;2023-06-22T10:04:13;6.90;;;4.80;;
77117;SDS011;66072;50.238;19.228;2023-06-22T10:06:41;7.10;;;5.30;;
77117;SDS011;66072;50.238;19.228;2023-06-22T10:09:08;5.20;;;4.20;;
77117;SDS011;66072;50.238;19.228;2023-06-22T10:11:36;5.80;;;4.90;;
77117;SDS011;66072;50.238;19.228;2023-06-22T10:14:04;6.50;;;5.20;;
77117;SDS011;66072;50.238;19.228;2023-06-22T10:16:32;6.90;;;4.50;;
77117;SDS011;66072;50.238;19.228;2023-06-22T10:19:02;6.00;;;4.00;;
77117;SDS011;66072;50.238;19.228;2023-06-22T10:21:30;5.30;;;4.10;;
77117;SDS011;66072;50.238;19.228;2023-06-22T10:23:59;5.70;;;4.20;;
77117;SDS011;66072;50.238;19.228;2023-06-22T10:26:27;5.30;;;4.60;;
77117;SDS011;66072;50.238;19.228;2023-06-22T10:28:56;4.20;;;3.40;;
77117;SDS011;66072;50.238;19.228;2023-06-22T10:31:43;4.90;;;4.40;;
77117;SDS011;66072;50.238;19.228;2023-06-22T10:34:12;4.70;;;4.00;;
77117;SDS011;66072;50.238;19.228;2023-06-22T10:36:41;6.10;;;4.20;;
77117;SDS011;66072;50.238;19.228;2023-06-22T10:39:11;6.40;;;4.70;;
77117;SDS011;66072;50.238;19.228;2023-06-22T10:41:40;4.80;;;3.60;;
77117;SDS011;66072;50.238;19.228;2023-06-22T10:44:08;4.80;;;3.50;;
77117;SDS011;66072;50.238;19.228;2023-06-22T10:46:35;5.60;;;4.10;;
77117;SDS011;66072;50.238;19.228;2023-06-22T10:49:03;5.50;;;3.90;;
77117;SDS011;66072;50.238;19.228;2023-06-22T10:51:31;4.80;;;4.10;;
77117;SDS011;66072;50.238;19.228;2023-06-22T10:53:58;5.50;;;3.60;;
77117;SDS011;66072;50.238;19.228;2023-06-22T10:56:26;5.40;;;3.60;;
77117;SDS011;66072;50.238;19.228;2023-06-22T10:58:54;5.80;;;4.30;;
77117;SDS011;66072;50.238;19.228;2023-06-22T11:01:21;4.90;;;4.40;;
77117;SDS011;66072;50.238;19.228;2023-06-22T11:04:03;5.90;;;4.10;;
77117;SDS011;66072;50.238;19.228;2023-06-22T11:06:31;4.60;;;4.00;;
77117;SDS011;66072;50.238;19.228;2023-06-22T11:08:59;6.80;;;4.10;;
77117;SDS011;66072;50.238;19.228;2023-06-22T11:11:30;5.50;;;4.20;;
77117;SDS011;66072;50.238;19.228;2023-06-22T11:13:57;5.50;;;3.80;;
77117;SDS011;66072;50.238;19.228;2023-06-22T11:16:25;5.80;;;4.40;;
77117;SDS011;66072;50.238;19.228;2023-06-22T11:18:53;5.30;;;3.80;;
77117;SDS011;66072;50.238;19.228;2023-06-22T11:21:20;5.60;;;4.10;;
77117;SDS011;66072;50.238;19.228;2023-06-22T11:23:48;4.90;;;4.20;;
77117;SDS011;66072;50.238;19.228;2023-06-22T11:26:16;5.80;;;3.90;;
77117;SDS011;66072;50.238;19.228;2023-06-22T11:28:43;4.40;;;3.90;;
77117;SDS011;66072;50.238;19.228;2023-06-22T11:31:11;6.40;;;4.10;;
77117;SDS011;66072;50.238;19.228;2023-06-22T11:33:42;5.00;;;4.00;;
77117;SDS011;66072;50.238;19.228;2023-06-22T11:36:09;4.90;;;4.20;;
77117;SDS011;66072;50.238;19.228;2023-06-22T11:38:40;5.00;;;4.10;;
77117;SDS011;66072;50.238;19.228;2023-06-22T11:41:08;5.10;;;3.40;;
77117;SDS011;66072;50.238;19.228;2023-06-22T11:43:36;5.20;;;4.10;;
77117;SDS011;66072;50.238;19.228;2023-06-22T11:46:04;6.60;;;4.60;;
77117;SDS011;66072;50.238;19.228;2023-06-22T11:48:32;6.20;;;4.40;;
77117;SDS011;66072;50.238;19.228;2023-06-22T11:51:01;5.80;;;4.30;;
77117;SDS011;66072;50.238;19.228;2023-06-22T11:53:29;5.20;;;4.00;;
77117;SDS011;66072;50.238;19.228;2023-06-22T11:55:57;6.30;;;4.20;;
77117;SDS011;66072;50.238;19.228;2023-06-22T11:58:25;5.50;;;4.40;;
77117;SDS011;66072;50.238;19.228;2023-06-22T12:00:53;4.40;;;3.60;;
77117;SDS011;66072;50.238;19.228;2023-06-22T12:03:22;5.00;;;4.10;;
77117;SDS011;66072;50.238;19.228;2023-06-22T12:08:18;4.20;;;3.80;;
77117;SDS011;66072;50.238;19.228;2023-06-22T12:10:45;5.10;;;4.30;;
77117;SDS011;66072;50.238;19.228;2023-06-22T12:13:13;6.60;;;3.90;;
77117;SDS011;66072;50.238;19.228;2023-06-22T12:15:41;8.10;;;5.40;;
77117;SDS011;66072;50.238;19.228;2023-06-22T12:18:09;4.80;;;4.00;;
77117;SDS011;66072;50.238;19.228;2023-06-22T12:20:36;4.50;;;4.10;;
77117;SDS011;66072;50.238;19.228;2023-06-22T12:23:04;5.30;;;3.50;;
77117;SDS011;66072;50.238;19.228;2023-06-22T12:25:32;5.30;;;3.70;;
77117;SDS011;66072;50.238;19.228;2023-06-22T12:27:59;4.20;;;3.70;;
77117;SDS011;66072;50.238;19.228;2023-06-22T12:30:27;5.40;;;3.90;;
77117;SDS011;66072;50.238;19.228;2023-06-22T12:32:55;4.60;;;3.80;;
77117;SDS011;66072;50.238;19.228;2023-06-22T12:35:23;4.90;;;4.00;;
77117;SDS011;66072;50.238;19.228;2023-06-22T12:37:51;5.40;;;4.20;;
77117;SDS011;66072;50.238;19.228;2023-06-22T12:40:19;4.60;;;3.40;;
77117;SDS011;66072;50.238;19.228;2023-06-22T12:42:46;5.70;;;4.20;;
77117;SDS011;66072;50.238;19.228;2023-06-22T12:45:14;5.30;;;4.30;;
77117;SDS011;66072;50.238;19.228;2023-06-22T12:47:42;4.70;;;4.00;;
77117;SDS011;66072;50.238;19.228;2023-06-22T12:50:09;4.40;;;3.90;;
77117;SDS011;66072;50.238;19.228;2023-06-22T12:55:06;4.20;;;3.50;;
77117;SDS011;66072;50.238;19.228;2023-06-22T12:57:34;4.60;;;3.30;;
77117;SDS011;66072;50.238;19.228;2023-06-22T13:00:02;4.70;;;2.90;;
77117;SDS011;66072;50.238;19.228;2023-06-22T13:02:30;4.40;;;3.50;;
77117;SDS011;66072;50.238;19.228;2023-06-22T13:04:58;4.70;;;3.50;;
77117;SDS011;66072;50.238;19.228;2023-06-22T13:07:25;4.00;;;3.50;;
77117;SDS011;66072;50.238;19.228;2023-06-22T13:09:53;4.90;;;3.70;;
77117;SDS011;66072;50.238;19.228;2023-06-22T13:12:20;6.00;;;3.80;;
77117;SDS011;66072;50.238;19.228;2023-06-22T13:17:16;4.60;;;3.50;;
77117;SDS011;66072;50.238;19.228;2023-06-22T13:19:43;6.70;;;4.50;;
77117;SDS011;66072;50.238;19.228;2023-06-22T13:22:28;4.70;;;3.80;;
77117;SDS011;66072;50.238;19.228;2023-06-22T13:25:00;4.70;;;3.80;;
77117;SDS011;66072;50.238;19.228;2023-06-22T13:29:55;5.80;;;4.50;;
77117;SDS011;66072;50.238;19.228;2023-06-22T13:34:52;5.90;;;4.80;;
77117;SDS011;66072;50.238;19.228;2023-06-22T13:37:20;6.10;;;5.20;;
77117;SDS011;66072;50.238;19.228;2023-06-22T13:39:48;7.40;;;4.50;;
77117;SDS011;66072;50.238;19.228;2023-06-22T13:42:17;4.90;;;3.90;;
77117;SDS011;66072;50.238;19.228;2023-06-22T13:44:45;6.00;;;4.70;;
77117;SDS011;66072;50.238;19.228;2023-06-22T13:49:41;5.40;;;4.60;;
77117;SDS011;66072;50.238;19.228;2023-06-22T13:52:08;5.30;;;4.30;;
77117;SDS011;66072;50.238;19.228;2023-06-22T13:54:36;4.90;;;4.40;;
77117;SDS011;66072;50.238;19.228;2023-06-22T13:57:04;5.60;;;4.40;;
77117;SDS011;66072;50.238;19.228;2023-06-22T13:59:32;6.30;;;4.50;;
77117;SDS011;66072;50.238;19.228;2023-06-22T14:02:00;5.50;;;4.30;;
77117;SDS011;66072;50.238;19.228;2023-06-22T14:04:27;7.10;;;4.60;;
77117;SDS011;66072;50.238;19.228;2023-06-22T14:06:55;4.80;;;3.70;;
77117;SDS011;66072;50.238;19.228;2023-06-22T14:09:24;5.10;;;4.00;;
77117;SDS011;66072;50.238;19.228;2023-06-22T14:11:53;4.90;;;4.00;;
77117;SDS011;66072;50.238;19.228;2023-06-22T14:14:21;5.10;;;3.80;;
77117;SDS011;66072;50.238;19.228;2023-06-22T14:16:49;4.70;;;3.60;;
77117;SDS011;66072;50.238;19.228;2023-06-22T14:21:45;4.50;;;3.40;;
77117;SDS011;66072;50.238;19.228;2023-06-22T14:24:13;5.40;;;3.50;;
77117;SDS011;66072;50.238;19.228;2023-06-22T14:29:08;5.20;;;3.30;;
77117;SDS011;66072;50.238;19.228;2023-06-22T14:34:03;3.50;;;3.10;;
77117;SDS011;66072;50.238;19.228;2023-06-22T14:36:33;4.30;;;3.40;;
77117;SDS011;66072;50.238;19.228;2023-06-22T14:39:01;4.20;;;3.00;;
77117;SDS011;66072;50.238;19.228;2023-06-22T14:41:29;4.40;;;3.60;;
77117;SDS011;66072;50.238;19.228;2023-06-22T14:43:57;4.00;;;3.30;;
77117;SDS011;66072;50.238;19.228;2023-06-22T14:46:25;4.40;;;3.60;;
77117;SDS011;66072;50.238;19.228;2023-06-22T14:48:53;3.90;;;3.10;;
77117;SDS011;66072;50.238;19.228;2023-06-22T14:51:21;3.70;;;3.30;;
77117;SDS011;66072;50.238;19.228;2023-06-22T14:56:17;4.90;;;3.70;;
77117;SDS011;66072;50.238;19.228;2023-06-22T14:58:45;3.50;;;3.10;;
77117;SDS011;66072;50.238;19.228;2023-06-22T15:01:16;4.60;;;3.90;;
77117;SDS011;66072;50.238;19.228;2023-06-22T15:03:44;4.90;;;3.70;;
77117;SDS011;66072;50.238;19.228;2023-06-22T15:06:12;4.10;;;3.50;;
77117;SDS011;66072;50.238;19.228;2023-06-22T15:08:40;4.40;;;3.70;;
77117;SDS011;66072;50.238;19.228;2023-06-22T15:11:08;4.80;;;3.50;;
77117;SDS011;66072;50.238;19.228;2023-06-22T15:13:39;4.40;;;3.50;;
77117;SDS011;66072;50.238;19.228;2023-06-22T15:16:07;5.20;;;3.20;;